Time;durP1;ratioP1;P1;durP2;ratioP2;P2;SDS_P1;SDS_P2;PMS_P1;PMS_P2;Temp;Humidity;BMP_temperature;BMP_pressure;BME280_temperature;BME280_humidity;BME280_pressure;Samples;Min_cycle;Max_cycle;Signal;HPM_P1;HPM_P2
2020/12/08 00:01:27;;;;;;;0.30;0.30;;;2.90;99.90;;;;;;5035479;28;20244;-61
2020/12/08 00:03:53;;;;;;;0.30;0.30;;;3.00;99.90;;;;;;5035577;28;20219;-63
2020/12/08 00:06:18;;;;;;;0.80;0.80;;;2.90;99.90;;;;;;5035816;28;20217;-63
2020/12/08 00:08:44;;;;;;;0.30;0.30;;;3.00;99.90;;;;;;5035479;28;20918;-63
2020/12/08 00:11:16;;;;;;;0.40;0.40;;;2.90;99.90;;;;;;5034149;28;20201;-63
2020/12/08 00:13:46;;;;;;;0.40;0.40;;;3.00;99.90;;;;;;5035528;28;20324;-62
2020/12/08 00:16:12;;;;;;;0.30;0.30;;;3.00;99.90;;;;;;5035107;28;20182;-62
2020/12/08 00:18:39;;;;;;;0.40;0.40;;;3.00;99.90;;;;;;5035071;28;20185;-64
2020/12/08 00:21:05;;;;;;;0.82;0.82;;;3.00;99.90;;;;;;5034959;28;20186;-64
2020/12/08 00:23:31;;;;;;;1.63;1.10;;;3.00;99.90;;;;;;5035349;28;20170;-62
2020/12/08 00:25:57;;;;;;;0.40;0.40;;;3.10;99.90;;;;;;5035694;28;20189;-63
2020/12/08 00:28:23;;;;;;;0.40;0.40;;;3.10;99.90;;;;;;5035259;28;20494;-62
2020/12/08 00:30:49;;;;;;;0.30;0.30;;;3.10;99.90;;;;;;5032909;28;20556;-63
2020/12/08 00:33:15;;;;;;;0.70;0.70;;;3.10;99.90;;;;;;5034815;28;20616;-62
2020/12/08 00:35:40;;;;;;;0.57;0.57;;;3.20;99.90;;;;;;5034738;28;20169;-63
2020/12/08 00:38:06;;;;;;;0.30;0.30;;;3.20;99.90;;;;;;5034654;28;20181;-62
2020/12/08 00:40:32;;;;;;;0.40;0.40;;;3.20;99.90;;;;;;5034030;28;20177;-62
2020/12/08 00:42:58;;;;;;;0.40;0.40;;;3.20;99.90;;;;;;5034733;28;20194;-64
2020/12/08 00:45:23;;;;;;;0.30;0.30;;;3.20;99.90;;;;;;5034694;28;20206;-62
2020/12/08 00:47:49;;;;;;;0.37;0.37;;;3.20;99.90;;;;;;5034719;28;20224;-61
2020/12/08 00:50:15;;;;;;;0.40;0.40;;;3.20;99.90;;;;;;5034080;28;20288;-63
2020/12/08 00:52:40;;;;;;;0.40;0.40;;;3.30;99.90;;;;;;5034362;28;20217;-61
2020/12/08 00:55:07;;;;;;;0.80;0.80;;;3.20;99.90;;;;;;5034502;28;20278;-61
2020/12/08 00:57:33;;;;;;;0.40;0.40;;;3.30;99.90;;;;;;5034708;28;20581;-61
2020/12/08 00:59:59;;;;;;;0.40;0.40;;;3.20;99.90;;;;;;5033757;28;20181;-62
2020/12/08 01:02:25;;;;;;;1.13;1.07;;;3.20;99.90;;;;;;5034281;28;20269;-61
2020/12/08 01:04:51;;;;;;;0.40;0.40;;;3.30;99.90;;;;;;5034430;28;20432;-62
2020/12/08 01:07:17;;;;;;;0.30;0.30;;;3.30;99.90;;;;;;5034218;28;20169;-62
2020/12/08 01:09:43;;;;;;;0.97;0.97;;;3.30;99.90;;;;;;5033394;28;20733;-62
2020/12/08 01:12:09;;;;;;;0.52;0.52;;;3.30;99.90;;;;;;5033827;28;20214;-62
2020/12/08 01:14:34;;;;;;;0.40;0.40;;;3.30;99.90;;;;;;5033990;28;20209;-62
2020/12/08 01:17:02;;;;;;;1.37;1.27;;;3.30;99.90;;;;;;5033971;28;20651;-63
2020/12/08 01:19:28;;;;;;;0.30;0.30;;;3.30;99.90;;;;;;5033979;28;20533;-63
2020/12/08 01:21:54;;;;;;;0.30;0.30;;;3.30;99.90;;;;;;5032200;28;20204;-63
2020/12/08 01:24:20;;;;;;;0.40;0.40;;;3.40;99.90;;;;;;5033505;28;20322;-62
2020/12/08 01:26:46;;;;;;;0.93;0.93;;;3.40;99.90;;;;;;5034058;28;20182;-62
2020/12/08 01:29:13;;;;;;;0.47;0.47;;;3.40;99.90;;;;;;5033920;28;20405;-62
2020/12/08 01:31:39;;;;;;;0.40;0.40;;;3.40;99.90;;;;;;5033336;28;20595;-62
2020/12/08 01:34:05;;;;;;;0.87;0.77;;;3.40;99.90;;;;;;5033758;28;20174;-61
2020/12/08 01:36:31;;;;;;;1.55;1.55;;;3.30;99.90;;;;;;5033950;28;20234;-62
2020/12/08 01:38:56;;;;;;;0.37;0.37;;;3.30;99.90;;;;;;5034326;28;20213;-62
2020/12/08 01:41:22;;;;;;;0.60;0.60;;;3.30;99.90;;;;;;5033376;28;20201;-62
2020/12/08 01:43:54;;;;;;;0.80;0.80;;;3.40;99.90;;;;;;5033348;28;20651;-61
2020/12/08 01:46:22;;;;;;;1.10;1.10;;;3.30;99.90;;;;;;5033723;28;20416;-61
2020/12/08 01:48:49;;;;;;;0.55;0.55;;;3.30;99.90;;;;;;5033693;28;20174;-62
2020/12/08 01:51:22;;;;;;;0.73;0.73;;;3.30;99.90;;;;;;5032974;28;20680;-63
2020/12/08 01:53:50;;;;;;;0.30;0.30;;;3.30;99.90;;;;;;5032970;28;20272;-63
2020/12/08 01:56:16;;;;;;;0.30;0.30;;;3.30;99.90;;;;;;5033618;28;20174;-62
2020/12/08 01:58:42;;;;;;;0.38;0.38;;;3.20;99.90;;;;;;5033301;28;20170;-62
2020/12/08 02:01:11;;;;;;;0.40;0.40;;;3.20;99.90;;;;;;5033245;28;20201;-61
2020/12/08 02:03:38;;;;;;;0.40;0.40;;;3.10;99.90;;;;;;5033060;28;20228;-64
2020/12/08 02:06:04;;;;;;;0.50;0.50;;;3.10;99.90;;;;;;5033410;28;20617;-62
2020/12/08 02:08:31;;;;;;;0.30;0.30;;;3.00;99.90;;;;;;5033477;28;20177;-62
2020/12/08 02:10:57;;;;;;;0.60;0.60;;;3.00;99.90;;;;;;5032887;28;20220;-62
2020/12/08 02:13:24;;;;;;;0.50;0.50;;;3.00;99.90;;;;;;5032936;28;20185;-62
2020/12/08 02:15:50;;;;;;;0.30;0.30;;;2.90;99.90;;;;;;5033254;28;20250;-62
2020/12/08 02:18:16;;;;;;;0.80;0.80;;;2.90;99.90;;;;;;5033127;28;20257;-61
2020/12/08 02:20:42;;;;;;;0.40;0.40;;;3.00;99.90;;;;;;5032813;28;20408;-63
2020/12/08 02:23:08;;;;;;;0.40;0.40;;;3.00;99.90;;;;;;5032833;28;20193;-61
2020/12/08 02:25:35;;;;;;;0.40;0.40;;;2.90;99.90;;;;;;5033278;28;20177;-62
2020/12/08 02:28:00;;;;;;;0.40;0.40;;;2.90;99.90;;;;;;5033226;28;20186;-61
2020/12/08 02:30:26;;;;;;;0.40;0.40;;;2.80;99.90;;;;;;5032452;28;20766;-62
2020/12/08 02:32:52;;;;;;;0.30;0.30;;;2.70;99.90;;;;;;5030808;28;20190;-63
2020/12/08 02:35:18;;;;;;;0.30;0.30;;;2.60;99.90;;;;;;5033822;28;20216;-62
2020/12/08 02:37:43;;;;;;;0.30;0.30;;;2.50;99.90;;;;;;5034883;28;20193;-62
2020/12/08 02:40:09;;;;;;;0.30;0.30;;;2.50;99.90;;;;;;5034843;28;20660;-62
2020/12/08 02:42:35;;;;;;;0.30;0.30;;;2.40;99.90;;;;;;5035402;28;20250;-63
2020/12/08 02:45:00;;;;;;;0.30;0.30;;;2.40;99.90;;;;;;5037647;28;20166;-62
2020/12/08 02:47:26;;;;;;;0.30;0.30;;;2.30;99.90;;;;;;5037149;28;20180;-64
2020/12/08 02:49:54;;;;;;;0.33;0.33;;;2.30;99.90;;;;;;5036546;28;20280;-61
2020/12/08 02:52:21;;;;;;;0.98;0.98;;;2.20;99.90;;;;;;5036471;28;20717;-60
2020/12/08 02:54:46;;;;;;;0.40;0.40;;;2.20;99.90;;;;;;5037009;28;20170;-61
2020/12/08 02:57:12;;;;;;;0.50;0.50;;;2.20;99.90;;;;;;5036796;28;20173;-60
2020/12/08 02:59:38;;;;;;;0.40;0.40;;;2.20;99.90;;;;;;5036597;28;20193;-61
2020/12/08 03:02:04;;;;;;;0.50;0.50;;;2.20;99.90;;;;;;5036117;28;20616;-61
2020/12/08 03:04:29;;;;;;;0.30;0.30;;;2.10;99.90;;;;;;5036642;28;20209;-62
2020/12/08 03:06:55;;;;;;;0.93;0.93;;;2.10;99.90;;;;;;5036608;28;20273;-61
2020/12/08 03:09:21;;;;;;;0.50;0.50;;;2.10;99.90;;;;;;5036538;28;20202;-62
2020/12/08 03:11:46;;;;;;;0.30;0.30;;;2.20;99.90;;;;;;5035682;28;20668;-62
2020/12/08 03:14:12;;;;;;;0.30;0.30;;;2.10;99.90;;;;;;5036159;28;20184;-62
2020/12/08 03:16:38;;;;;;;0.40;0.40;;;2.10;99.90;;;;;;5036480;28;20212;-60
2020/12/08 03:19:03;;;;;;;0.40;0.40;;;2.10;99.90;;;;;;5036325;28;20330;-62
2020/12/08 03:21:33;;;;;;;0.30;0.30;;;2.20;99.90;;;;;;5035204;28;20448;-61
2020/12/08 03:23:59;;;;;;;0.30;0.30;;;2.20;99.90;;;;;;5036182;28;20186;-63
2020/12/08 03:26:25;;;;;;;0.30;0.30;;;2.20;99.90;;;;;;5036329;28;20541;-62
2020/12/08 03:28:51;;;;;;;0.30;0.30;;;2.20;99.90;;;;;;5036320;28;20843;-62
2020/12/08 03:31:17;;;;;;;2.72;2.63;;;2.30;99.90;;;;;;5035329;28;20463;-62
2020/12/08 03:33:42;;;;;;;1.27;1.27;;;2.30;99.90;;;;;;5036230;28;20644;-61
2020/12/08 03:36:15;;;;;;;0.30;0.30;;;2.30;99.90;;;;;;5035671;28;20166;-62
2020/12/08 03:39:00;;;;;;;0.40;0.40;;;2.30;99.90;;;;;;5036071;28;20177;-62
2020/12/08 03:41:26;;;;;;;0.40;0.40;;;2.30;99.90;;;;;;5034825;28;20209;-62
2020/12/08 03:43:52;;;;;;;1.33;1.30;;;2.20;99.90;;;;;;5035829;28;20501;-63
2020/12/08 03:46:23;;;;;;;0.40;0.40;;;2.20;99.90;;;;;;5034607;28;20177;-62
2020/12/08 03:48:50;;;;;;;0.40;0.40;;;2.10;99.90;;;;;;5035353;28;20162;-61
2020/12/08 03:51:20;;;;;;;0.40;0.40;;;2.00;99.90;;;;;;5035105;28;20260;-62
2020/12/08 03:53:46;;;;;;;0.40;0.40;;;2.00;99.90;;;;;;5035544;28;20193;-62
2020/12/08 03:56:16;;;;;;;0.30;0.30;;;2.00;99.90;;;;;;5036137;28;20249;-62
2020/12/08 03:58:42;;;;;;;0.40;0.40;;;2.00;99.90;;;;;;5035357;28;20843;-61
2020/12/08 04:01:14;;;;;;;0.30;0.30;;;1.90;99.90;;;;;;5033894;28;20213;-62
2020/12/08 04:03:41;;;;;;;5.95;1.65;;;1.90;99.90;;;;;;5035627;28;20413;-62
2020/12/08 04:06:07;;;;;;;0.40;0.40;;;1.90;99.90;;;;;;5035255;28;20235;-62
2020/12/08 04:08:32;;;;;;;0.40;0.40;;;2.00;99.90;;;;;;5035116;28;20170;-62
2020/12/08 04:10:58;;;;;;;0.40;0.40;;;2.00;99.90;;;;;;5035143;28;20324;-62
2020/12/08 04:13:23;;;;;;;0.87;0.87;;;2.00;99.90;;;;;;5035220;28;20169;-62
2020/12/08 04:15:49;;;;;;;0.30;0.30;;;2.00;99.90;;;;;;5035291;28;20180;-62
2020/12/08 04:18:15;;;;;;;0.40;0.40;;;2.00;99.90;;;;;;5035121;28;20572;-62
2020/12/08 04:20:44;;;;;;;0.50;0.50;;;2.00;99.90;;;;;;5034929;28;20538;-61
2020/12/08 04:23:12;;;;;;;0.30;0.30;;;2.00;99.90;;;;;;5035182;28;20194;-62
2020/12/08 04:25:38;;;;;;;0.30;0.30;;;2.00;99.90;;;;;;5035277;28;20536;-62
2020/12/08 04:28:04;;;;;;;0.40;0.40;;;2.00;99.90;;;;;;5035366;28;20213;-61
2020/12/08 04:30:30;;;;;;;1.55;1.45;;;1.90;99.90;;;;;;5034639;28;20198;-62
2020/12/08 04:32:56;;;;;;;0.30;0.30;;;1.90;99.90;;;;;;5035019;28;20200;-62
2020/12/08 04:35:21;;;;;;;0.40;0.30;;;1.90;99.90;;;;;;5033629;28;20647;-61
2020/12/08 04:37:47;;;;;;;0.40;0.40;;;1.80;99.90;;;;;;5034974;28;20170;-62
2020/12/08 04:40:13;;;;;;;0.30;0.30;;;1.80;99.90;;;;;;5034264;28;20604;-62
2020/12/08 04:42:49;;;;;;;0.50;0.50;;;1.70;99.90;;;;;;5034809;28;20591;-62
2020/12/08 04:45:16;;;;;;;0.90;0.90;;;1.70;99.90;;;;;;5034892;28;20674;-62
2020/12/08 04:47:46;;;;;;;0.30;0.30;;;1.70;99.90;;;;;;5034602;28;20235;-62
2020/12/08 04:50:13;;;;;;;0.40;0.40;;;1.70;99.90;;;;;;5033845;28;20246;-62
2020/12/08 04:52:41;;;;;;;0.40;0.40;;;1.60;99.90;;;;;;5034493;28;20206;-62
2020/12/08 04:55:06;;;;;;;0.30;0.30;;;1.70;99.90;;;;;;5034612;28;20719;-62
2020/12/08 04:57:32;;;;;;;0.30;0.30;;;1.70;99.90;;;;;;5033961;28;20205;-62
2020/12/08 05:00:07;;;;;;;0.30;0.30;;;1.70;99.90;;;;;;5034189;28;20424;-62
2020/12/08 05:02:54;;;;;;;0.30;0.30;;;1.70;99.90;;;;;;5034486;28;20355;-62
2020/12/08 05:05:22;;;;;;;0.40;0.40;;;1.70;99.90;;;;;;5034043;28;20240;-62
2020/12/08 05:07:48;;;;;;;0.30;0.30;;;1.70;99.90;;;;;;5034452;28;20171;-62
2020/12/08 05:10:25;;;;;;;0.30;0.30;;;1.70;99.90;;;;;;5033566;28;20212;-63
2020/12/08 05:12:50;;;;;;;0.30;0.30;;;1.70;99.90;;;;;;5033980;28;20639;-61
2020/12/08 05:15:16;;;;;;;0.40;0.40;;;1.80;99.90;;;;;;5034214;28;20198;-63
2020/12/08 05:17:43;;;;;;;0.50;0.50;;;1.80;99.90;;;;;;5034691;28;20166;-61
2020/12/08 05:20:11;;;;;;;0.45;0.45;;;1.90;99.90;;;;;;5033481;28;20764;-63
2020/12/08 05:22:37;;;;;;;0.30;0.30;;;2.00;99.90;;;;;;5034210;28;20260;-62
2020/12/08 05:25:08;;;;;;;0.30;0.30;;;2.00;99.90;;;;;;5032712;28;20648;-61
2020/12/08 05:27:34;;;;;;;1.20;1.20;;;2.10;99.90;;;;;;5034170;28;20265;-61
2020/12/08 05:30:07;;;;;;;0.40;0.40;;;2.10;99.90;;;;;;5033175;28;20226;-62
2020/12/08 05:32:43;;;;;;;0.30;0.30;;;2.10;99.90;;;;;;5033863;28;20183;-62
2020/12/08 05:35:13;;;;;;;1.40;0.95;;;2.10;99.90;;;;;;5033965;28;20195;-61
2020/12/08 05:37:42;;;;;;;0.30;0.30;;;2.10;99.90;;;;;;5034173;28;20518;-62
2020/12/08 05:40:13;;;;;;;0.90;0.90;;;2.10;99.90;;;;;;5033003;28;20181;-62
2020/12/08 05:42:44;;;;;;;1.20;1.10;;;2.00;99.90;;;;;;5033900;28;20546;-62
2020/12/08 05:45:13;;;;;;;0.40;0.40;;;2.10;99.90;;;;;;5033897;28;20185;-62
2020/12/08 05:47:53;;;;;;;0.30;0.30;;;2.00;99.90;;;;;;5033711;28;20253;-63
2020/12/08 05:50:20;;;;;;;0.63;0.63;;;2.10;99.90;;;;;;5032959;28;20205;-62
2020/12/08 05:52:51;;;;;;;0.30;0.30;;;2.10;99.90;;;;;;5032026;28;20658;-62
2020/12/08 05:55:19;;;;;;;0.40;0.40;;;2.10;99.90;;;;;;5033620;28;20541;-62
2020/12/08 05:57:46;;;;;;;0.43;0.43;;;2.10;99.90;;;;;;5033507;28;20177;-63
2020/12/08 06:00:23;;;;;;;0.30;0.30;;;2.20;99.90;;;;;;5032659;28;20182;-61
2020/12/08 06:02:49;;;;;;;0.40;0.40;;;2.20;99.90;;;;;;5033264;28;20189;-61
2020/12/08 06:05:29;;;;;;;1.23;1.23;;;2.20;99.90;;;;;;5033472;28;20639;-62
2020/12/08 06:07:55;;;;;;;0.40;0.40;;;2.20;99.90;;;;;;5033512;28;20185;-63
2020/12/08 06:10:21;;;;;;;0.40;0.40;;;2.20;99.90;;;;;;5031983;28;20198;-61
2020/12/08 06:12:56;;;;;;;0.40;0.40;;;2.20;99.90;;;;;;5033112;28;20197;-61
2020/12/08 06:15:24;;;;;;;0.30;0.30;;;2.10;99.90;;;;;;5033354;28;20249;-63
2020/12/08 06:17:50;;;;;;;0.43;0.43;;;2.10;99.90;;;;;;5033478;28;20174;-60
2020/12/08 06:20:16;;;;;;;0.30;0.30;;;2.20;99.90;;;;;;5032641;28;20536;-63
2020/12/08 06:22:53;;;;;;;0.30;0.30;;;2.20;99.90;;;;;;5033252;28;20189;-63
2020/12/08 06:25:18;;;;;;;0.40;0.40;;;2.20;99.90;;;;;;5033406;28;20185;-63
2020/12/08 06:27:44;;;;;;;0.30;0.30;;;2.20;99.90;;;;;;5033238;28;20170;-62
2020/12/08 06:30:10;;;;;;;0.40;0.40;;;2.20;99.90;;;;;;5032479;28;20715;-62
2020/12/08 06:32:35;;;;;;;0.30;0.30;;;2.20;99.90;;;;;;5032906;28;20194;-62
2020/12/08 06:35:14;;;;;;;0.30;0.30;;;2.20;99.90;;;;;;5031078;28;20692;-62
2020/12/08 06:37:53;;;;;;;0.40;0.40;;;2.20;99.90;;;;;;5048000;28;20189;-62
2020/12/08 06:40:23;;;;;;;0.30;0.30;;;2.20;99.90;;;;;;5032586;28;20521;-62
2020/12/08 06:42:49;;;;;;;0.50;0.50;;;2.20;99.90;;;;;;5033179;28;20555;-62
2020/12/08 06:45:21;;;;;;;0.30;0.30;;;2.20;99.90;;;;;;5032978;28;20248;-63
2020/12/08 06:47:48;;;;;;;0.30;0.30;;;2.10;99.90;;;;;;5013249;28;20171;-62
2020/12/08 06:50:24;;;;;;;0.60;0.60;;;2.10;99.90;;;;;;5012918;28;20198;-63
2020/12/08 06:52:55;;;;;;;0.40;0.40;;;2.10;99.90;;;;;;5012974;28;20214;-63
2020/12/08 06:55:21;;;;;;;0.30;0.30;;;2.00;99.90;;;;;;5013407;28;20174;-63
2020/12/08 06:57:46;;;;;;;0.40;0.40;;;2.00;99.90;;;;;;5032610;28;20178;-64
2020/12/08 07:00:12;;;;;;;1.57;1.47;;;2.00;99.90;;;;;;5032585;28;20178;-61
2020/12/08 07:02:51;;;;;;;0.50;0.50;;;2.00;99.90;;;;;;5032585;28;20230;-61
2020/12/08 07:05:23;;;;;;;0.40;0.40;;;2.00;99.90;;;;;;5032628;28;20417;-60
2020/12/08 07:07:49;;;;;;;0.30;0.30;;;1.90;99.90;;;;;;5032860;28;20173;-63
2020/12/08 07:10:17;;;;;;;0.30;0.30;;;1.80;99.90;;;;;;5032381;28;20244;-62
2020/12/08 07:12:50;;;;;;;0.40;0.40;;;1.70;99.90;;;;;;5032582;28;20225;-62
2020/12/08 07:15:26;;;;;;;0.30;0.30;;;1.70;99.90;;;;;;5032166;28;20174;-63
2020/12/08 07:17:54;;;;;;;0.40;0.40;;;1.70;99.90;;;;;;5032677;28;20220;-63
2020/12/08 07:20:20;;;;;;;0.40;0.40;;;1.70;99.90;;;;;;5033034;28;20189;-63
2020/12/08 07:22:46;;;;;;;1.87;1.77;;;1.60;99.90;;;;;;5035208;28;20194;-62
2020/12/08 07:25:16;;;;;;;0.30;0.30;;;1.70;99.90;;;;;;5036429;28;20415;-63
2020/12/08 07:27:48;;;;;;;0.77;0.77;;;1.70;99.90;;;;;;5034662;28;20182;-64
2020/12/08 07:30:16;;;;;;;0.43;0.43;;;1.70;99.90;;;;;;5035484;28;20197;-63
2020/12/08 07:32:42;;;;;;;0.30;0.30;;;1.80;99.90;;;;;;5036109;28;20203;-63
2020/12/08 07:35:21;;;;;;;1.47;1.37;;;1.80;99.90;;;;;;5035680;28;20178;-65
2020/12/08 07:37:49;;;;;;;0.40;0.40;;;1.90;99.90;;;;;;5034797;28;20166;-64
2020/12/08 07:40:15;;;;;;;0.30;0.30;;;1.90;99.90;;;;;;5035699;28;20267;-63
2020/12/08 07:42:51;;;;;;;1.23;1.13;;;2.00;99.90;;;;;;5035752;28;20222;-65
2020/12/08 07:45:18;;;;;;;0.30;0.30;;;2.10;99.90;;;;;;5035672;28;20503;-61
2020/12/08 07:47:52;;;;;;;0.30;0.30;;;2.20;99.90;;;;;;5035038;28;20182;-62
2020/12/08 07:50:29;;;;;;;1.00;1.00;;;2.30;99.90;;;;;;5034875;28;20229;-62
2020/12/08 07:53:02;;;;;;;0.40;0.40;;;2.40;99.90;;;;;;5035344;28;20301;-62
2020/12/08 07:55:29;;;;;;;5.55;2.67;;;2.50;99.90;;;;;;5035163;28;20184;-62
2020/12/08 07:57:56;;;;;;;0.30;0.30;;;2.60;99.90;;;;;;5034253;28;20265;-63
2020/12/08 08:00:23;;;;;;;0.40;0.40;;;2.70;99.90;;;;;;5035110;28;20162;-63
2020/12/08 08:02:49;;;;;;;0.32;0.32;;;2.70;99.90;;;;;;5035290;28;20614;-63
2020/12/08 08:05:15;;;;;;;1.57;1.47;;;2.80;99.90;;;;;;5035213;28;20277;-63
2020/12/08 08:07:41;;;;;;;0.40;0.40;;;2.70;99.90;;;;;;5034257;28;20178;-63
2020/12/08 08:10:07;;;;;;;0.30;0.30;;;2.80;99.90;;;;;;5034951;28;20600;-62
2020/12/08 08:12:32;;;;;;;1.70;1.60;;;2.80;99.90;;;;;;5035321;28;20273;-63
2020/12/08 08:14:58;;;;;;;0.30;0.30;;;2.80;99.90;;;;;;5034896;28;20175;-63
2020/12/08 08:17:24;;;;;;;0.30;0.30;;;2.80;99.90;;;;;;5035249;28;20170;-61
2020/12/08 08:19:50;;;;;;;0.30;0.30;;;2.70;99.90;;;;;;5034907;28;20181;-62
2020/12/08 08:22:16;;;;;;;0.40;0.40;;;2.80;99.90;;;;;;5035173;28;20197;-60
2020/12/08 08:24:41;;;;;;;4.80;2.87;;;2.70;99.90;;;;;;5035170;28;20539;-64
2020/12/08 08:27:07;;;;;;;1.80;1.70;;;2.70;99.90;;;;;;5035228;28;20178;-62
2020/12/08 08:29:33;;;;;;;0.50;0.50;;;2.70;99.90;;;;;;5035245;28;20173;-63
2020/12/08 08:31:58;;;;;;;0.93;0.93;;;2.80;99.90;;;;;;5033931;28;20305;-65
2020/12/08 08:34:24;;;;;;;0.30;0.30;;;3.00;99.90;;;;;;5034550;28;20174;-63
2020/12/08 08:36:56;;;;;;;0.30;0.30;;;3.60;99.90;;;;;;5034881;28;20600;-63
2020/12/08 08:39:22;;;;;;;0.40;0.40;;;4.40;99.90;;;;;;5035144;28;20254;-64
2020/12/08 08:41:48;;;;;;;0.40;0.40;;;5.30;99.90;;;;;;5034305;28;20194;-62
2020/12/08 08:44:14;;;;;;;0.30;0.20;;;6.00;99.90;;;;;;5034585;28;20181;-64
2020/12/08 08:46:41;;;;;;;2.43;1.13;;;7.00;99.90;;;;;;5035099;28;20654;-64
2020/12/08 08:49:08;;;;;;;0.85;0.52;;;7.20;99.90;;;;;;5034780;28;20197;-62
2020/12/08 08:51:36;;;;;;;0.40;0.40;;;7.80;99.90;;;;;;5033443;28;20206;-64
2020/12/08 08:54:02;;;;;;;4.03;2.05;;;8.40;99.90;;;;;;5033500;28;20186;-63
2020/12/08 08:56:28;;;;;;;0.30;0.30;;;9.00;99.90;;;;;;5034430;28;20178;-64
2020/12/08 08:58:54;;;;;;;0.60;0.60;;;9.40;99.90;;;;;;5034673;28;20193;-63
2020/12/08 09:01:19;;;;;;;0.30;0.20;;;9.60;99.90;;;;;;5033910;28;20449;-65
2020/12/08 09:03:46;;;;;;;0.30;0.20;;;10.10;97.80;;;;;;5034298;28;20184;-69
2020/12/08 09:06:12;;;;;;;0.30;0.30;;;10.20;96.20;;;;;;5033097;28;20184;-63
2020/12/08 09:08:38;;;;;;;0.30;0.20;;;10.30;96.00;;;;;;5033033;28;20426;-64
2020/12/08 09:11:04;;;;;;;0.47;0.47;;;10.30;96.30;;;;;;5033770;28;20467;-64
2020/12/08 09:13:30;;;;;;;0.50;0.50;;;10.30;95.40;;;;;;5033919;28;20777;-64
2020/12/08 09:15:56;;;;;;;0.87;0.70;;;10.30;95.00;;;;;;5014449;28;20428;-63
2020/12/08 09:18:22;;;;;;;0.73;0.73;;;10.30;95.10;;;;;;5014365;28;20843;-65
2020/12/08 09:20:47;;;;;;;2.70;2.50;;;10.10;94.80;;;;;;5014293;28;20179;-66
2020/12/08 09:23:13;;;;;;;0.53;0.53;;;10.10;95.30;;;;;;5015571;28;20168;-66
2020/12/08 09:25:39;;;;;;;0.30;0.30;;;10.20;94.80;;;;;;5033640;28;20612;-66
2020/12/08 09:28:04;;;;;;;3.03;1.03;;;10.20;94.90;;;;;;5034069;28;20193;-66
2020/12/08 09:30:30;;;;;;;0.67;0.67;;;10.30;94.70;;;;;;5033512;28;20287;-65
2020/12/08 09:32:56;;;;;;;0.30;0.20;;;10.30;95.00;;;;;;5032526;28;20217;-65
2020/12/08 09:35:21;;;;;;;2.00;1.90;;;10.50;94.00;;;;;;5032164;28;20184;-66
2020/12/08 09:37:48;;;;;;;1.07;0.97;;;10.50;93.70;;;;;;5032526;28;20612;-66
2020/12/08 09:40:14;;;;;;;0.60;0.60;;;10.50;93.80;;;;;;5032084;28;20181;-66
2020/12/08 09:42:41;;;;;;;0.53;0.53;;;10.60;94.20;;;;;;5032306;28;20498;-65
2020/12/08 09:45:07;;;;;;;0.90;0.90;;;10.70;94.10;;;;;;5031071;28;20940;-65
2020/12/08 09:47:34;;;;;;;0.30;0.27;;;11.00;94.00;;;;;;5032974;28;20834;-65
2020/12/08 09:50:01;;;;;;;0.87;0.87;;;11.30;93.90;;;;;;5033361;28;20835;-66
2020/12/08 09:52:30;;;;;;;0.47;0.47;;;11.70;92.60;;;;;;5033379;28;20456;-67
2020/12/08 09:54:56;;;;;;;4.60;1.30;;;11.80;92.10;;;;;;5033186;28;20428;-67
2020/12/08 09:57:23;;;;;;;0.30;0.30;;;12.00;91.90;;;;;;5033668;28;20763;-66
2020/12/08 09:59:50;;;;;;;1.53;1.37;;;11.90;91.30;;;;;;5033159;28;20170;-67
2020/12/08 10:02:15;;;;;;;0.30;0.30;;;11.80;91.60;;;;;;5033388;28;20490;-67
2020/12/08 10:04:41;;;;;;;0.53;0.53;;;11.80;91.20;;;;;;5033354;28;20531;-66
2020/12/08 10:07:06;;;;;;;1.23;0.87;;;11.50;91.40;;;;;;5033623;28;20256;-66
2020/12/08 10:09:32;;;;;;;0.80;0.80;;;11.30;92.10;;;;;;5033496;28;20169;-67
2020/12/08 10:11:58;;;;;;;1.27;0.70;;;11.10;91.90;;;;;;5033122;28;20190;-67
2020/12/08 10:14:23;;;;;;;0.30;0.20;;;11.00;92.00;;;;;;5033077;28;20664;-66
2020/12/08 10:16:50;;;;;;;0.93;0.83;;;10.80;92.10;;;;;;5033193;28;20165;-65
2020/12/08 10:19:16;;;;;;;0.47;0.40;;;10.50;92.50;;;;;;5033431;28;20188;-65
2020/12/08 10:21:41;;;;;;;0.30;0.30;;;10.40;92.90;;;;;;5032717;28;20489;-65
2020/12/08 10:24:07;;;;;;;2.00;1.17;;;10.40;93.00;;;;;;5032945;28;20605;-67
2020/12/08 10:26:33;;;;;;;1.27;0.80;;;10.50;92.90;;;;;;5033254;28;20271;-66
2020/12/08 10:28:59;;;;;;;0.60;0.60;;;10.50;92.70;;;;;;5033332;28;20503;-65
2020/12/08 10:31:25;;;;;;;0.30;0.20;;;10.50;93.00;;;;;;5032531;28;20210;-65
2020/12/08 10:33:50;;;;;;;0.30;0.30;;;10.50;92.80;;;;;;5032692;28;20417;-66
2020/12/08 10:36:16;;;;;;;2.20;1.83;;;10.50;93.10;;;;;;5033085;28;20523;-66
2020/12/08 10:38:42;;;;;;;1.23;0.80;;;10.50;93.10;;;;;;5032910;28;20175;-66
2020/12/08 10:41:07;;;;;;;0.30;0.20;;;10.40;92.80;;;;;;5032422;28;20222;-66
2020/12/08 10:43:33;;;;;;;0.93;0.90;;;10.20;93.00;;;;;;5032622;28;20501;-65
2020/12/08 10:45:59;;;;;;;0.30;0.30;;;9.90;94.30;;;;;;5032874;28;20182;-65
2020/12/08 10:48:25;;;;;;;0.40;0.40;;;9.70;94.30;;;;;;5033008;28;20179;-64
2020/12/08 10:50:50;;;;;;;0.40;0.40;;;9.50;94.50;;;;;;5032793;28;20759;-65
2020/12/08 10:53:16;;;;;;;0.70;0.70;;;9.50;94.60;;;;;;5032896;28;20209;-66
2020/12/08 10:55:42;;;;;;;0.97;0.97;;;9.50;94.70;;;;;;5034272;28;20538;-66
2020/12/08 10:58:07;;;;;;;1.07;0.77;;;9.60;94.20;;;;;;5036969;28;20182;-65
2020/12/08 11:00:33;;;;;;;1.33;1.00;;;9.50;93.70;;;;;;5036356;28;20182;-65
2020/12/08 11:02:59;;;;;;;0.40;0.40;;;9.30;93.80;;;;;;5036832;28;20192;-65
2020/12/08 11:05:26;;;;;;;1.00;0.95;;;8.90;94.10;;;;;;5036591;28;20966;-65
2020/12/08 11:07:51;;;;;;;1.05;1.05;;;8.40;94.40;;;;;;5036938;28;20596;-65
2020/12/08 11:10:17;;;;;;;0.30;0.30;;;7.90;95.20;;;;;;5036353;28;20190;-65
2020/12/08 11:12:43;;;;;;;0.70;0.70;;;7.40;95.80;;;;;;5037432;28;20194;-64
2020/12/08 11:15:08;;;;;;;0.40;0.40;;;7.10;96.50;;;;;;5037762;28;20173;-64
2020/12/08 11:17:37;;;;;;;0.30;0.30;;;6.70;97.50;;;;;;5036692;28;20260;-65
2020/12/08 11:20:04;;;;;;;4.70;2.05;;;6.50;98.20;;;;;;5036531;28;20200;-65
2020/12/08 11:22:32;;;;;;;0.40;0.40;;;6.40;98.30;;;;;;5036189;28;20202;-64
2020/12/08 11:25:01;;;;;;;0.60;0.60;;;6.30;98.60;;;;;;5036688;28;20541;-65
2020/12/08 11:27:27;;;;;;;0.40;0.40;;;6.20;99.30;;;;;;5037009;28;20186;-64
2020/12/08 11:29:52;;;;;;;0.30;0.30;;;6.10;99.70;;;;;;5035780;28;20206;-65
2020/12/08 11:32:18;;;;;;;4.43;1.70;;;6.10;99.90;;;;;;5036148;28;20279;-65
2020/12/08 11:34:45;;;;;;;0.30;0.30;;;6.10;99.90;;;;;;5036200;28;20178;-65
2020/12/08 11:37:11;;;;;;;0.35;0.35;;;6.00;99.90;;;;;;5036116;28;20205;-64
2020/12/08 11:39:36;;;;;;;0.30;0.30;;;5.90;99.90;;;;;;5036002;28;20229;-66
2020/12/08 11:42:04;;;;;;;0.50;0.50;;;5.90;99.90;;;;;;5035960;28;20660;-65
2020/12/08 11:44:30;;;;;;;0.30;0.30;;;5.90;99.90;;;;;;5035548;28;20228;-65
2020/12/08 11:46:56;;;;;;;0.40;0.40;;;5.80;99.90;;;;;;5036146;28;20170;-65
2020/12/08 11:49:21;;;;;;;0.93;0.93;;;5.80;99.90;;;;;;5035934;28;20169;-64
2020/12/08 11:51:47;;;;;;;0.47;0.47;;;5.70;99.90;;;;;;5035317;28;20267;-65
2020/12/08 11:54:14;;;;;;;0.85;0.85;;;5.70;99.90;;;;;;5035549;28;20243;-65
2020/12/08 11:56:39;;;;;;;0.73;0.73;;;5.80;99.90;;;;;;5035829;28;20249;-65
2020/12/08 11:59:05;;;;;;;0.40;0.40;;;5.80;99.90;;;;;;5035634;28;20261;-65
2020/12/08 12:01:31;;;;;;;0.30;0.30;;;5.70;99.90;;;;;;5035049;28;20198;-66
2020/12/08 12:03:57;;;;;;;0.60;0.60;;;5.70;99.90;;;;;;5035784;28;20412;-65
2020/12/08 12:06:23;;;;;;;1.47;0.83;;;5.70;99.90;;;;;;5035326;28;20463;-66
2020/12/08 12:08:49;;;;;;;0.40;0.40;;;5.80;99.90;;;;;;5034940;28;20439;-65
2020/12/08 12:11:15;;;;;;;0.43;0.43;;;5.70;99.90;;;;;;5034656;28;20206;-65
2020/12/08 12:13:41;;;;;;;0.35;0.35;;;5.70;99.90;;;;;;5035329;28;20174;-65
2020/12/08 12:16:06;;;;;;;0.40;0.40;;;5.70;99.90;;;;;;5035415;28;20216;-64
2020/12/08 12:18:32;;;;;;;0.30;0.30;;;5.60;99.90;;;;;;5034977;28;20183;-65
2020/12/08 12:20:58;;;;;;;0.60;0.60;;;5.60;99.90;;;;;;5034734;28;20178;-65
2020/12/08 12:23:24;;;;;;;0.60;0.60;;;5.70;99.90;;;;;;5035374;28;20301;-65
2020/12/08 12:25:49;;;;;;;0.40;0.40;;;5.70;99.90;;;;;;5033887;28;20633;-65
2020/12/08 12:28:15;;;;;;;0.40;0.40;;;5.60;99.90;;;;;;5034892;28;20201;-65
2020/12/08 12:30:40;;;;;;;0.87;0.87;;;5.60;99.90;;;;;;5034952;28;20221;-65
2020/12/08 12:33:06;;;;;;;0.50;0.50;;;5.60;99.90;;;;;;5035006;28;20197;-64
2020/12/08 12:35:32;;;;;;;1.80;0.83;;;5.60;99.90;;;;;;5035037;28;20220;-65
2020/12/08 12:37:57;;;;;;;0.40;0.40;;;5.60;99.90;;;;;;5034985;28;20176;-64
2020/12/08 12:40:23;;;;;;;0.50;0.50;;;5.60;99.90;;;;;;5033857;28;20177;-65
2020/12/08 12:42:49;;;;;;;0.60;0.60;;;5.60;99.90;;;;;;5034638;28;20236;-65
2020/12/08 12:45:14;;;;;;;0.73;0.73;;;5.70;99.90;;;;;;5034906;28;20178;-65
2020/12/08 12:47:40;;;;;;;0.60;0.60;;;5.70;99.90;;;;;;5034737;28;20170;-65
2020/12/08 12:50:06;;;;;;;0.40;0.40;;;5.70;99.90;;;;;;5033915;28;20190;-65
2020/12/08 12:52:32;;;;;;;0.50;0.50;;;5.60;99.90;;;;;;5034448;28;20233;-66
2020/12/08 12:54:57;;;;;;;0.33;0.33;;;5.70;99.90;;;;;;5034693;28;20409;-64